createdAt,value
2022-12-11T00:01:58.546Z,24.80
2022-12-11T00:04:26.274Z,26.10
2022-12-11T00:06:55.243Z,25.33
2022-12-11T00:09:22.933Z,23.48
2022-12-11T00:11:50.557Z,22.85
2022-12-11T00:14:18.230Z,27.30
2022-12-11T00:16:45.873Z,26.15
2022-12-11T00:19:13.495Z,25.77
2022-12-11T00:21:41.141Z,28.42
2022-12-11T00:24:10.411Z,29.42
2022-12-11T00:26:38.205Z,31.77
2022-12-11T00:29:08.236Z,30.60
2022-12-11T00:31:35.835Z,33.35
2022-12-11T00:34:03.414Z,36.08
2022-12-11T00:36:31.077Z,36.58
2022-12-11T00:38:59.795Z,37.10
2022-12-11T00:41:28.725Z,40.72
2022-12-11T00:43:56.389Z,34.67
2022-12-11T00:46:24.123Z,35.88
2022-12-11T00:48:51.806Z,33.35
2022-12-11T00:51:19.567Z,34.25
2022-12-11T00:53:47.202Z,33.83
2022-12-11T00:56:18.353Z,33.67
2022-12-11T00:58:47.656Z,32.53
2022-12-11T01:01:18.539Z,33.57
2022-12-11T01:03:46.636Z,34.53
2022-12-11T01:06:16.554Z,32.38
2022-12-11T01:08:45.071Z,27.55
2022-12-11T01:11:13.804Z,35.40
2022-12-11T01:13:42.257Z,34.15
2022-12-11T01:16:13.089Z,30.80
2022-12-11T01:18:40.849Z,30.25
2022-12-11T01:21:10.048Z,30.45
2022-12-11T01:23:38.336Z,27.60
2022-12-11T01:26:08.271Z,28.45
2022-12-11T01:28:36.097Z,27.30
2022-12-11T01:31:03.939Z,30.13
2022-12-11T01:33:32.853Z,27.55
2022-12-11T01:36:00.459Z,28.73
2022-12-11T01:38:27.986Z,27.33
2022-12-11T01:40:55.549Z,28.52
2022-12-11T01:43:23.129Z,29.45
2022-12-11T01:45:50.763Z,27.55
2022-12-11T01:48:22.166Z,29.05
2022-12-11T01:50:54.027Z,33.80
2022-12-11T01:53:25.334Z,32.90
2022-12-11T01:55:56.209Z,32.83
2022-12-11T01:58:28.248Z,31.92
2022-12-11T02:00:57.153Z,32.88
2022-12-11T02:03:24.836Z,34.42
2022-12-11T02:05:53.722Z,36.38
2022-12-11T02:08:22.213Z,32.50
2022-12-11T02:11:01.558Z,34.25
2022-12-11T02:13:35.805Z,33.58
2022-12-11T02:16:09.911Z,33.15
2022-12-11T02:18:43.099Z,36.60
2022-12-11T02:23:59.858Z,33.88
2022-12-11T02:26:49.816Z,32.85
2022-12-11T02:29:23.786Z,33.25
2022-12-11T02:31:57.443Z,33.83
2022-12-11T02:34:33.244Z,33.35
2022-12-11T02:37:07.856Z,31.02
2022-12-11T02:39:40.044Z,34.20
2022-12-11T02:42:10.931Z,33.55
2022-12-11T02:44:42.395Z,29.88
2022-12-11T02:47:14.632Z,34.45
2022-12-11T02:49:45.381Z,23.95
2022-12-11T02:52:15.408Z,30.80
2022-12-11T02:54:45.621Z,30.25
2022-12-11T02:57:17.683Z,31.52
2022-12-11T02:59:47.431Z,32.05
2022-12-11T03:02:18.732Z,29.63
2022-12-11T03:04:47.914Z,33.03
2022-12-11T03:07:19.154Z,28.75
2022-12-11T03:09:48.636Z,31.10
2022-12-11T03:12:20.153Z,33.35
2022-12-11T03:14:49.938Z,32.45
2022-12-11T03:17:20.619Z,33.75
2022-12-11T03:19:54.133Z,31.23
2022-12-11T03:22:26.297Z,31.42
2022-12-11T03:25:01.370Z,33.05
2022-12-11T03:27:34.210Z,33.20
2022-12-11T03:30:07.449Z,35.83
2022-12-11T03:35:13.143Z,38.45
2022-12-11T03:37:42.777Z,31.90
2022-12-11T03:40:17.767Z,37.63
2022-12-11T03:42:48.219Z,35.47
2022-12-11T03:45:18.811Z,33.05
2022-12-11T03:47:47.921Z,33.25
2022-12-11T03:50:18.167Z,34.17
2022-12-11T03:52:51.362Z,35.50
2022-12-11T03:57:48.392Z,32.90
2022-12-11T04:00:20.806Z,37.78
2022-12-11T04:03:13.219Z,35.45
2022-12-11T04:05:42.395Z,35.03
2022-12-11T04:08:10.198Z,36.72
2022-12-11T04:10:37.926Z,37.90
2022-12-11T04:13:05.560Z,35.13
2022-12-11T04:15:33.578Z,39.78
2022-12-11T04:18:18.702Z,40.15
2022-12-11T04:21:04.101Z,37.22
2022-12-11T04:23:49.430Z,36.63
2022-12-11T04:26:18.958Z,42.05
2022-12-11T04:28:48.398Z,37.78
2022-12-11T04:31:19.330Z,38.10
2022-12-11T04:33:47.148Z,34.72
2022-12-11T04:36:15.390Z,38.45
2022-12-11T04:38:42.983Z,39.92
2022-12-11T04:41:12.472Z,34.97
2022-12-11T04:43:40.619Z,37.42
2022-12-11T04:46:10.431Z,33.92
2022-12-11T04:48:40.668Z,40.58
2022-12-11T04:51:09.709Z,33.38
2022-12-11T04:53:37.672Z,36.90
2022-12-11T04:56:06.965Z,35.92
2022-12-11T04:58:35.805Z,37.95
2022-12-11T05:01:08.262Z,39.90
2022-12-11T05:03:35.995Z,41.13
2022-12-11T05:06:05.725Z,40.25
2022-12-11T05:08:36.791Z,36.83
2022-12-11T05:11:06.695Z,44.03
2022-12-11T05:13:34.857Z,40.42
2022-12-11T05:16:04.828Z,46.53
2022-12-11T05:18:32.482Z,41.60
2022-12-11T05:21:02.404Z,44.85
2022-12-11T05:23:31.691Z,37.53
2022-12-11T05:26:01.697Z,35.15
2022-12-11T05:28:32.041Z,37.72
2022-12-11T05:31:01.662Z,37.00
2022-12-11T05:33:30.390Z,41.70
2022-12-11T05:35:57.969Z,37.05
2022-12-11T05:38:25.685Z,35.00
2022-12-11T05:40:59.273Z,36.92
2022-12-11T05:43:28.579Z,33.78
2022-12-11T05:45:57.234Z,37.25
2022-12-11T05:48:24.862Z,33.72
2022-12-11T05:50:59.139Z,37.38
2022-12-11T05:53:27.289Z,37.45
2022-12-11T05:55:55.064Z,34.75
2022-12-11T05:58:24.100Z,36.30
2022-12-11T06:00:51.694Z,36.67
2022-12-11T06:03:19.372Z,34.65
2022-12-11T06:05:47.017Z,35.22
2022-12-11T06:08:14.657Z,35.60
2022-12-11T06:10:46.266Z,43.10
2022-12-11T06:13:14.234Z,80.65
2022-12-11T06:15:43.876Z,38.03
2022-12-11T06:18:11.599Z,35.40
2022-12-11T06:20:39.435Z,34.47
2022-12-11T06:23:07.063Z,35.30
2022-12-11T06:25:35.242Z,37.83
2022-12-11T06:28:02.916Z,33.38
2022-12-11T06:30:38.316Z,34.65
2022-12-11T06:33:08.400Z,36.17
2022-12-11T06:35:41.663Z,45.67
2022-12-11T06:38:10.495Z,49.45
2022-12-11T06:40:38.202Z,45.47
2022-12-11T06:43:06.184Z,34.90
2022-12-11T06:45:33.866Z,37.53
2022-12-11T06:48:01.483Z,37.78
2022-12-11T06:50:30.392Z,34.83
2022-12-11T06:52:58.102Z,36.38
2022-12-11T06:55:25.707Z,32.55
2022-12-11T06:57:53.223Z,34.60
2022-12-11T07:00:21.129Z,34.75
2022-12-11T07:02:48.726Z,37.15
2022-12-11T07:05:16.369Z,34.88
2022-12-11T07:07:45.349Z,33.60
2022-12-11T07:10:13.021Z,30.33
2022-12-11T07:12:40.730Z,35.60
2022-12-11T07:15:09.536Z,33.83
2022-12-11T07:17:37.362Z,42.78
2022-12-11T07:20:05.802Z,43.25
2022-12-11T07:22:33.355Z,38.70
2022-12-11T07:25:02.474Z,39.88
2022-12-11T07:27:30.216Z,45.15
2022-12-11T07:29:57.772Z,40.08
2022-12-11T07:32:25.469Z,32.10
2022-12-11T07:34:53.099Z,32.22
2022-12-11T07:37:20.669Z,33.10
2022-12-11T07:39:48.885Z,31.30
2022-12-11T07:42:17.919Z,33.13
2022-12-11T07:44:45.473Z,30.00
2022-12-11T07:47:13.037Z,33.08
2022-12-11T07:49:40.628Z,32.67
2022-12-11T07:52:08.185Z,32.78
2022-12-11T07:54:35.708Z,33.92
2022-12-11T07:57:03.297Z,31.50
2022-12-11T07:59:32.286Z,37.80
2022-12-11T08:02:02.113Z,33.00
2022-12-11T08:04:29.728Z,35.60
2022-12-11T08:06:58.671Z,33.10
2022-12-11T08:09:26.202Z,30.38
2022-12-11T08:11:53.789Z,34.25
2022-12-11T08:14:21.613Z,32.58
2022-12-11T08:16:50.630Z,38.05
2022-12-11T08:19:18.549Z,40.83
2022-12-11T08:21:46.714Z,41.80
2022-12-11T08:24:20.505Z,37.03
2022-12-11T08:26:48.592Z,35.03
2022-12-11T08:29:16.297Z,46.40
2022-12-11T08:31:43.890Z,44.45
2022-12-11T08:34:15.507Z,36.97
2022-12-11T08:36:44.204Z,32.17
2022-12-11T08:39:11.761Z,31.35
2022-12-11T08:41:39.516Z,32.30
2022-12-11T08:44:16.313Z,29.23
2022-12-11T08:46:44.651Z,29.42
2022-12-11T08:49:13.888Z,30.20
2022-12-11T08:51:41.469Z,26.70
2022-12-11T08:54:10.829Z,30.08
2022-12-11T08:56:38.407Z,27.17
2022-12-11T08:59:06.187Z,33.03
2022-12-11T09:01:33.768Z,28.23
2022-12-11T09:04:01.619Z,27.80
2022-12-11T09:06:31.470Z,27.92
2022-12-11T09:09:01.817Z,25.92
2022-12-11T09:11:31.600Z,25.20
2022-12-11T09:14:05.152Z,26.50
2022-12-11T09:16:37.532Z,32.67
2022-12-11T09:19:05.150Z,28.50
2022-12-11T09:21:34.313Z,26.83
2022-12-11T09:24:02.521Z,27.67
2022-12-11T09:26:31.624Z,26.33
2022-12-11T09:28:59.977Z,28.80
2022-12-11T09:31:29.598Z,33.08
2022-12-11T09:33:59.626Z,45.13
2022-12-11T09:36:27.828Z,29.23
2022-12-11T09:38:56.899Z,25.65
2022-12-11T09:41:35.942Z,27.38
2022-12-11T09:44:14.906Z,29.20
2022-12-11T09:46:43.905Z,27.30
2022-12-11T09:49:23.598Z,26.55
2022-12-11T09:51:57.332Z,28.83
2022-12-11T09:54:26.668Z,29.73
2022-12-11T09:57:02.413Z,27.80
2022-12-11T09:59:37.983Z,29.45
2022-12-11T10:02:27.005Z,25.27
2022-12-11T10:05:05.247Z,26.80
2022-12-11T10:07:38.982Z,28.13
2022-12-11T10:10:17.684Z,25.55
2022-12-11T10:12:54.432Z,24.77
2022-12-11T10:15:36.793Z,27.55
2022-12-11T10:18:07.042Z,24.45
2022-12-11T10:20:40.326Z,39.45
2022-12-11T10:23:09.436Z,25.60
2022-12-11T10:25:42.071Z,29.45
2022-12-11T10:28:12.373Z,25.17
2022-12-11T10:30:45.204Z,32.00
2022-12-11T10:33:19.335Z,29.33
2022-12-11T10:35:51.138Z,35.58
2022-12-11T10:38:27.394Z,27.77
2022-12-11T10:40:59.457Z,28.25
2022-12-11T10:43:35.097Z,30.20
2022-12-11T10:46:02.870Z,25.92
2022-12-11T10:48:30.504Z,27.05
2022-12-11T10:51:01.793Z,23.70
2022-12-11T10:53:30.101Z,25.88
2022-12-11T10:56:00.127Z,27.00
2022-12-11T10:58:31.812Z,26.50
2022-12-11T11:01:11.862Z,24.63
2022-12-11T11:03:55.108Z,23.35
2022-12-11T11:06:23.913Z,24.48
2022-12-11T11:08:53.310Z,24.00
2022-12-11T11:11:33.898Z,26.90
2022-12-11T11:14:16.343Z,28.05
2022-12-11T11:16:45.812Z,28.92
2022-12-11T11:19:21.258Z,27.83
2022-12-11T11:21:51.976Z,23.40
2022-12-11T11:24:28.001Z,26.65
2022-12-11T11:27:12.676Z,26.08
2022-12-11T11:29:42.456Z,22.35
2022-12-11T11:32:18.802Z,22.05
2022-12-11T11:34:46.406Z,25.73
2022-12-11T11:37:25.095Z,26.92
2022-12-11T11:39:57.461Z,23.58
2022-12-11T11:42:38.046Z,27.40
2022-12-11T11:45:13.522Z,26.13
2022-12-11T11:47:50.629Z,23.25
2022-12-11T11:50:24.043Z,24.73
2022-12-11T11:52:58.788Z,23.10
2022-12-11T11:55:39.451Z,24.38
2022-12-11T11:58:15.137Z,23.67
2022-12-11T12:00:43.533Z,24.42
2022-12-11T12:03:14.500Z,23.27
2022-12-11T12:05:50.836Z,24.40
2022-12-11T12:08:30.458Z,24.33
2022-12-11T12:11:04.508Z,23.10
2022-12-11T12:13:49.637Z,23.40
2022-12-11T12:16:52.365Z,23.80
2022-12-11T12:19:35.410Z,24.25
2022-12-11T12:22:16.290Z,22.73
2022-12-11T12:24:52.640Z,24.15
2022-12-11T12:27:51.008Z,22.95
2022-12-11T12:30:22.507Z,23.52
2022-12-11T12:33:07.270Z,23.80
2022-12-11T12:35:37.103Z,25.05
2022-12-11T12:38:15.857Z,21.48
2022-12-11T12:40:56.592Z,22.13
2022-12-11T12:43:45.485Z,22.48
2022-12-11T12:46:24.521Z,22.42
2022-12-11T12:48:53.517Z,21.00
2022-12-11T12:51:21.997Z,22.80
2022-12-11T12:53:58.291Z,22.63
2022-12-11T12:56:26.943Z,21.60
2022-12-11T12:58:54.479Z,20.75
2022-12-11T13:01:26.429Z,21.58
2022-12-11T13:03:57.423Z,19.30
2022-12-11T13:06:37.752Z,18.48
2022-12-11T13:09:15.801Z,19.05
2022-12-11T13:11:44.058Z,20.67
2022-12-11T13:14:28.442Z,19.02
2022-12-11T13:17:23.346Z,18.60
2022-12-11T13:19:57.436Z,19.90
2022-12-11T13:22:25.962Z,21.13
2022-12-11T13:25:01.680Z,20.25
2022-12-11T13:27:38.541Z,23.23
2022-12-11T13:30:09.059Z,22.17
2022-12-11T13:32:38.046Z,21.17
2022-12-11T13:35:07.544Z,22.65
2022-12-11T13:37:39.526Z,21.42
2022-12-11T13:40:10.721Z,20.85
2022-12-11T13:42:45.294Z,20.67
2022-12-11T13:45:20.317Z,21.38
2022-12-11T13:47:49.549Z,20.80
2022-12-11T13:50:21.744Z,20.58
2022-12-11T13:52:56.394Z,21.67
2022-12-11T13:55:26.486Z,23.88
2022-12-11T13:57:54.018Z,20.92
2022-12-11T14:00:25.165Z,23.92
2022-12-11T14:02:56.607Z,23.02
2022-12-11T14:05:25.013Z,20.45
2022-12-11T14:07:55.682Z,23.20
2022-12-11T14:10:25.730Z,25.30
2022-12-11T14:12:58.097Z,25.02
2022-12-11T14:15:27.074Z,23.42
2022-12-11T14:17:57.527Z,21.45
2022-12-11T14:20:28.101Z,20.60
2022-12-11T14:23:18.018Z,23.83
2022-12-11T14:25:53.441Z,22.30
2022-12-11T14:28:22.536Z,19.95
2022-12-11T14:30:52.720Z,24.42
2022-12-11T14:33:24.037Z,23.95
2022-12-11T14:35:55.721Z,21.10
2022-12-11T14:38:26.995Z,26.83
2022-12-11T14:40:59.432Z,24.95
2022-12-11T14:43:34.114Z,21.60
2022-12-11T14:46:08.728Z,24.63
2022-12-11T14:48:43.456Z,22.55
2022-12-11T14:51:15.568Z,27.60
2022-12-11T14:53:45.992Z,24.23
2022-12-11T14:56:19.379Z,22.00
2022-12-11T14:58:52.597Z,23.15
2022-12-11T15:04:03.921Z,26.60
2022-12-11T15:06:34.322Z,24.65
2022-12-11T15:09:21.001Z,24.55
2022-12-11T15:11:51.446Z,25.63
2022-12-11T15:14:21.574Z,28.85
2022-12-11T15:16:53.961Z,25.65
2022-12-11T15:19:28.140Z,26.03
2022-12-11T15:21:57.523Z,22.30
2022-12-11T15:24:31.298Z,28.90
2022-12-11T15:27:00.965Z,34.55
2022-12-11T15:29:34.911Z,36.67
2022-12-11T15:32:14.888Z,30.70
2022-12-11T15:34:46.684Z,26.20
2022-12-11T15:37:25.638Z,29.05
2022-12-11T15:39:54.806Z,26.77
2022-12-11T15:42:27.806Z,24.67
2022-12-11T15:44:56.295Z,27.30
2022-12-11T15:47:26.354Z,25.25
2022-12-11T15:49:58.912Z,26.17
2022-12-11T15:52:26.615Z,26.85
2022-12-11T15:54:54.176Z,26.83
2022-12-11T15:57:24.731Z,29.17
2022-12-11T15:59:54.926Z,22.45
2022-12-11T16:02:24.217Z,24.98
2022-12-11T16:04:51.994Z,25.02
2022-12-11T16:07:23.070Z,23.02
2022-12-11T16:09:51.392Z,25.30
2022-12-11T16:12:19.437Z,26.10
2022-12-11T16:14:47.596Z,23.35
2022-12-11T16:17:16.804Z,25.45
2022-12-11T16:19:45.120Z,23.90
2022-12-11T16:22:14.047Z,26.65
2022-12-11T16:24:42.974Z,24.58
2022-12-11T16:27:10.630Z,23.58
2022-12-11T16:29:40.711Z,27.63
2022-12-11T16:32:09.391Z,26.77
2022-12-11T16:34:38.133Z,25.05
2022-12-11T16:37:06.494Z,23.88
2022-12-11T16:39:34.129Z,25.95
2022-12-11T16:42:03.057Z,29.15
2022-12-11T16:44:30.626Z,28.75
2022-12-11T16:46:58.823Z,31.70
2022-12-11T16:49:26.377Z,29.13
2022-12-11T16:51:53.927Z,28.70
2022-12-11T16:54:21.479Z,27.90
2022-12-11T16:56:49.083Z,28.98
2022-12-11T16:59:17.993Z,30.20
2022-12-11T17:01:46.540Z,27.17
2022-12-11T17:04:14.099Z,27.17
2022-12-11T17:06:41.696Z,28.08
2022-12-11T17:09:09.226Z,26.05
2022-12-11T17:11:36.792Z,26.48
2022-12-11T17:14:04.448Z,25.58
2022-12-11T17:16:33.994Z,24.95
2022-12-11T17:19:02.939Z,27.77
2022-12-11T17:21:30.495Z,27.02
2022-12-11T17:23:58.035Z,28.15
2022-12-11T17:26:27.959Z,26.45
2022-12-11T17:28:57.170Z,27.63
2022-12-11T17:31:24.974Z,27.50
2022-12-11T17:33:54.704Z,29.05
2022-12-11T17:36:23.319Z,30.15
2022-12-11T17:38:50.883Z,36.30
2022-12-11T17:41:20.758Z,33.92
2022-12-11T17:43:49.105Z,29.75
2022-12-11T17:46:16.896Z,27.95
2022-12-11T17:48:44.892Z,33.53
2022-12-11T17:51:20.942Z,29.63
2022-12-11T17:53:50.598Z,34.08
2022-12-11T17:56:18.468Z,31.52
2022-12-11T17:58:47.316Z,31.38
2022-12-11T18:01:17.959Z,31.40
2022-12-11T18:03:45.752Z,28.65
2022-12-11T18:06:17.647Z,27.55
2022-12-11T18:08:46.149Z,26.73
2022-12-11T18:11:16.559Z,25.58
2022-12-11T18:13:45.007Z,34.25
2022-12-11T18:16:16.741Z,29.52
2022-12-11T18:18:45.731Z,26.95
2022-12-11T18:21:15.932Z,31.35
2022-12-11T18:23:44.233Z,30.83
2022-12-11T18:26:14.308Z,25.40
2022-12-11T18:28:42.147Z,27.00
2022-12-11T18:31:10.039Z,29.05
2022-12-11T18:33:38.962Z,29.38
2022-12-11T18:36:07.831Z,32.42
2022-12-11T18:38:36.784Z,32.33
2022-12-11T18:41:05.235Z,32.90
2022-12-11T18:43:32.875Z,32.03
2022-12-11T18:46:06.350Z,30.77
2022-12-11T18:48:34.024Z,29.63
2022-12-11T18:51:02.033Z,28.77
2022-12-11T18:53:29.715Z,27.10
2022-12-11T18:56:00.607Z,28.55
2022-12-11T18:58:28.457Z,24.70
2022-12-11T19:00:56.105Z,27.67
2022-12-11T19:03:23.785Z,24.73
2022-12-11T19:05:51.413Z,26.42
2022-12-11T19:08:19.100Z,28.35
2022-12-11T19:10:47.961Z,31.15
2022-12-11T19:13:16.955Z,28.55
2022-12-11T19:15:45.122Z,27.73
2022-12-11T19:18:12.708Z,26.45
2022-12-11T19:20:56.714Z,30.38
2022-12-11T19:23:31.710Z,23.92
2022-12-11T19:25:59.256Z,33.75
2022-12-11T19:28:28.216Z,28.45
2022-12-11T19:30:55.862Z,27.02
2022-12-11T19:33:23.565Z,28.70
2022-12-11T19:36:00.644Z,27.50
2022-12-11T19:38:31.027Z,29.42
2022-12-11T19:40:58.645Z,27.20
2022-12-11T19:43:26.194Z,28.88
2022-12-11T19:45:55.124Z,28.55
2022-12-11T19:48:22.653Z,34.03
2022-12-11T19:50:50.181Z,34.97
2022-12-11T19:53:17.717Z,35.58
2022-12-11T19:55:50.537Z,33.38
2022-12-11T19:58:18.403Z,31.67
2022-12-11T20:00:46.185Z,31.05
2022-12-11T20:03:15.161Z,32.25
2022-12-11T20:05:43.015Z,39.65
2022-12-11T20:11:04.544Z,38.17
2022-12-11T20:13:32.535Z,31.13
2022-12-11T20:16:00.417Z,32.83
2022-12-11T20:18:29.731Z,30.15
2022-12-11T20:21:00.752Z,31.58
2022-12-11T20:23:28.988Z,29.55
2022-12-11T20:25:59.016Z,26.98
2022-12-11T20:28:27.443Z,34.13
2022-12-11T20:30:55.017Z,32.72
2022-12-11T20:33:22.579Z,32.65
2022-12-11T20:35:51.666Z,31.08
2022-12-11T20:38:20.837Z,33.78
2022-12-11T20:40:48.382Z,34.35
2022-12-11T20:43:15.888Z,35.35
2022-12-11T20:45:48.533Z,36.00
2022-12-11T20:48:16.489Z,33.20
2022-12-11T20:50:44.125Z,32.08
2022-12-11T20:53:12.987Z,32.38
2022-12-11T20:55:41.440Z,36.22
2022-12-11T20:58:09.811Z,32.63
2022-12-11T21:00:37.617Z,34.08
2022-12-11T21:03:06.086Z,35.30
2022-12-11T21:05:33.650Z,44.05
2022-12-11T21:08:01.239Z,36.03
2022-12-11T21:10:30.135Z,33.97
2022-12-11T21:12:57.663Z,36.08
2022-12-11T21:15:25.218Z,38.00
2022-12-11T21:17:52.831Z,33.65
2022-12-11T21:20:21.134Z,34.97
2022-12-11T21:22:48.689Z,31.17
2022-12-11T21:25:16.287Z,36.72
2022-12-11T21:27:45.158Z,39.55
2022-12-11T21:30:13.907Z,34.20
2022-12-11T21:32:42.026Z,38.45
2022-12-11T21:35:10.936Z,37.13
2022-12-11T21:37:41.750Z,36.53
2022-12-11T21:40:10.525Z,37.60
2022-12-11T21:42:38.051Z,34.03
2022-12-11T21:45:58.801Z,35.00
2022-12-11T21:47:55.835Z,34.65
2022-12-11T21:50:24.013Z,34.83
2022-12-11T21:52:51.610Z,34.78
2022-12-11T21:55:19.340Z,33.80
2022-12-11T21:57:47.050Z,32.75
2022-12-11T22:00:16.956Z,31.23
2022-12-11T22:02:44.526Z,31.00
2022-12-11T22:05:12.414Z,35.00
2022-12-11T22:07:40.187Z,30.08
2022-12-11T22:10:08.782Z,33.60
2022-12-11T22:12:36.343Z,35.05
2022-12-11T22:15:04.489Z,38.40
2022-12-11T22:17:33.351Z,34.30
2022-12-11T22:20:00.911Z,31.50
2022-12-11T22:22:28.398Z,34.20
2022-12-11T22:24:55.964Z,32.47
2022-12-11T22:27:24.145Z,33.58
2022-12-11T22:29:51.870Z,29.48
2022-12-11T22:32:19.393Z,30.92
2022-12-11T22:34:48.232Z,32.80
2022-12-11T22:37:16.018Z,30.42
2022-12-11T22:39:43.608Z,33.03
2022-12-11T22:42:11.186Z,29.25
2022-12-11T22:44:38.716Z,31.83
2022-12-11T22:47:06.368Z,29.00
2022-12-11T22:49:33.970Z,24.38
2022-12-11T22:52:02.862Z,27.35
2022-12-11T22:54:30.435Z,26.50
2022-12-11T22:56:59.031Z,27.83
2022-12-11T22:59:26.582Z,24.10
2022-12-11T23:01:54.233Z,28.05
2022-12-11T23:04:21.830Z,26.30
2022-12-11T23:06:49.369Z,25.30
2022-12-11T23:09:18.676Z,27.17
2022-12-11T23:11:46.383Z,26.95
2022-12-11T23:14:16.077Z,25.67
2022-12-11T23:16:44.522Z,23.70
2022-12-11T23:19:13.237Z,28.42
2022-12-11T23:21:41.340Z,28.75
2022-12-11T23:24:09.621Z,26.10
2022-12-11T23:26:39.283Z,28.02
2022-12-11T23:29:07.232Z,28.67
2022-12-11T23:31:35.515Z,28.77
2022-12-11T23:34:03.114Z,31.08
2022-12-11T23:36:31.058Z,26.73
2022-12-11T23:38:58.884Z,28.20
2022-12-11T23:41:26.740Z,23.80
2022-12-11T23:43:55.770Z,27.08
2022-12-11T23:46:25.415Z,28.85
2022-12-11T23:48:53.690Z,25.45
2022-12-11T23:51:34.547Z,28.17
2022-12-11T23:54:02.117Z,25.80
2022-12-11T23:56:30.640Z,23.80
2022-12-11T23:59:00.233Z,24.67
